createdAt,value
2019-06-08T00:01:33.921Z,73.00
2019-06-08T00:04:04.210Z,73.00
2019-06-08T00:06:33.551Z,73.20
2019-06-08T00:09:02.750Z,73.50
2019-06-08T00:11:31.899Z,73.10
2019-06-08T00:14:01.058Z,71.90
2019-06-08T00:16:30.164Z,72.90
2019-06-08T00:18:59.312Z,73.00
2019-06-08T00:21:28.340Z,72.60
2019-06-08T00:23:57.487Z,72.70
2019-06-08T00:26:26.574Z,73.30
2019-06-08T00:28:55.693Z,73.60
2019-06-08T00:31:24.842Z,73.10
2019-06-08T00:33:54.676Z,73.60
2019-06-08T00:36:24.965Z,75.10
2019-06-08T00:38:54.268Z,74.80
2019-06-08T00:41:23.718Z,75.10
2019-06-08T00:43:53.015Z,75.00
2019-06-08T00:46:25.572Z,74.90
2019-06-08T00:48:55.008Z,74.60
2019-06-08T00:51:25.457Z,74.50
2019-06-08T00:53:54.847Z,74.00
2019-06-08T00:56:23.895Z,73.00
2019-06-08T00:58:55.323Z,73.40
2019-06-08T01:01:26.409Z,72.90
2019-06-08T01:03:55.339Z,72.70
2019-06-08T01:06:24.970Z,73.40
2019-06-08T01:08:54.348Z,73.00
2019-06-08T01:11:24.630Z,72.80
2019-06-08T01:13:53.906Z,72.90
2019-06-08T01:16:23.043Z,72.00
2019-06-08T01:18:52.271Z,71.60
2019-06-08T01:21:21.414Z,70.70
2019-06-08T01:23:50.574Z,70.50
2019-06-08T01:26:19.847Z,70.00
2019-06-08T01:28:49.165Z,70.10
2019-06-08T01:31:18.184Z,69.40
2019-06-08T01:33:47.336Z,69.80
2019-06-08T01:36:16.750Z,70.50
2019-06-08T01:38:45.883Z,68.70
2019-06-08T01:41:15.115Z,69.10
2019-06-08T01:43:44.227Z,69.30
2019-06-08T01:46:13.436Z,68.90
2019-06-08T01:48:42.641Z,68.40
2019-06-08T01:51:19.305Z,68.40
2019-06-08T01:53:49.740Z,68.30
2019-06-08T01:56:18.910Z,68.30
2019-06-08T01:58:48.127Z,68.10
2019-06-08T02:01:19.515Z,68.20
2019-06-08T02:03:49.010Z,68.20
2019-06-08T02:06:18.168Z,67.80
2019-06-08T02:08:47.344Z,68.10
2019-06-08T02:11:16.523Z,68.50
2019-06-08T02:13:45.620Z,68.30
2019-06-08T02:16:15.005Z,68.50
2019-06-08T02:18:50.928Z,68.80
2019-06-08T02:21:15.424Z,68.70
2019-06-08T02:23:44.623Z,69.10
2019-06-08T02:26:13.808Z,69.30
2019-06-08T02:28:43.004Z,69.80
2019-06-08T02:31:12.193Z,69.80
2019-06-08T02:33:43.666Z,69.30
2019-06-08T02:36:12.789Z,69.30
2019-06-08T02:38:41.892Z,69.90
2019-06-08T02:41:11.027Z,70.00
2019-06-08T02:43:40.449Z,70.70
2019-06-08T02:46:09.699Z,71.70
2019-06-08T02:49:00.445Z,72.90
2019-06-08T02:51:09.733Z,72.60
2019-06-08T02:53:41.420Z,73.60
2019-06-08T02:56:14.760Z,74.60
2019-06-08T02:58:44.201Z,75.20
2019-06-08T03:01:16.305Z,74.70
2019-06-08T03:03:45.618Z,75.30
2019-06-08T03:06:15.472Z,75.80
2019-06-08T03:08:47.562Z,75.60
2019-06-08T03:11:18.146Z,76.50
2019-06-08T03:13:49.015Z,76.70
2019-06-08T03:16:20.497Z,76.60
2019-06-08T03:18:50.317Z,77.00
2019-06-08T03:21:19.481Z,76.30
2019-06-08T03:23:48.690Z,76.00
2019-06-08T03:26:18.192Z,75.80
2019-06-08T03:28:47.442Z,75.40
2019-06-08T03:31:16.537Z,75.60
2019-06-08T03:33:53.250Z,75.50
2019-06-08T03:36:16.615Z,74.40
2019-06-08T03:38:45.736Z,74.40
2019-06-08T03:41:14.837Z,74.40
2019-06-08T03:43:43.982Z,74.00
2019-06-08T03:46:13.272Z,74.10
2019-06-08T03:48:44.516Z,75.00
2019-06-08T03:51:13.507Z,73.80
2019-06-08T03:53:44.393Z,73.60
2019-06-08T03:56:13.534Z,74.40
2019-06-08T03:58:43.377Z,73.40
2019-06-08T04:01:13.427Z,72.90
2019-06-08T04:03:43.895Z,73.00
2019-06-08T04:06:13.449Z,72.60
2019-06-08T04:08:44.930Z,73.40
2019-06-08T04:11:13.528Z,72.40
2019-06-08T04:13:44.483Z,72.10
2019-06-08T04:16:13.494Z,72.00
2019-06-08T04:18:44.295Z,72.50
2019-06-08T04:21:13.470Z,71.90
2019-06-08T04:23:43.187Z,72.20
2019-06-08T04:26:13.334Z,72.30
2019-06-08T04:28:42.592Z,72.00
2019-06-08T04:31:11.750Z,72.60
2019-06-08T04:33:42.075Z,72.80
2019-06-08T04:36:11.341Z,72.50
2019-06-08T04:38:41.301Z,72.70
2019-06-08T04:41:11.027Z,72.70
2019-06-08T04:43:42.619Z,72.30
2019-06-08T04:46:12.408Z,72.30
2019-06-08T04:48:43.003Z,72.40
2019-06-08T04:51:13.748Z,72.00
2019-06-08T04:53:43.635Z,72.50
2019-06-08T04:56:13.796Z,72.30
2019-06-08T04:58:45.958Z,71.90
2019-06-08T05:01:13.773Z,72.30
2019-06-08T05:03:43.277Z,72.50
2019-06-08T05:06:12.518Z,72.50
2019-06-08T05:08:42.995Z,72.30
2019-06-08T05:11:12.223Z,72.20
2019-06-08T05:13:41.276Z,72.30
2019-06-08T05:16:10.386Z,72.30
2019-06-08T05:18:41.073Z,72.20
2019-06-08T05:21:10.412Z,72.30
2019-06-08T05:23:39.404Z,71.80
2019-06-08T05:26:27.611Z,71.50
2019-06-08T05:28:56.847Z,71.40
2019-06-08T05:31:25.924Z,71.90
2019-06-08T05:33:55.091Z,71.60
2019-06-08T05:36:24.165Z,71.50
2019-06-08T05:38:53.193Z,71.90
2019-06-08T05:41:24.255Z,72.00
2019-06-08T05:43:53.128Z,72.00
2019-06-08T05:46:22.265Z,72.70
2019-06-08T05:48:51.358Z,72.30
2019-06-08T05:51:20.434Z,72.10
2019-06-08T05:53:50.108Z,72.20
2019-06-08T05:56:19.500Z,72.00
2019-06-08T05:58:48.595Z,72.00
2019-06-08T06:01:17.686Z,71.90
2019-06-08T06:03:46.759Z,72.20
2019-06-08T06:06:15.886Z,72.30
2019-06-08T06:08:44.951Z,72.20
2019-06-08T06:11:13.946Z,72.10
2019-06-08T06:13:43.104Z,72.70
2019-06-08T06:16:12.106Z,72.80
2019-06-08T06:18:41.124Z,72.00
2019-06-08T06:21:12.153Z,73.30
2019-06-08T06:23:41.178Z,72.30
2019-06-08T06:26:10.325Z,72.50
2019-06-08T06:28:39.425Z,72.90
2019-06-08T06:31:08.567Z,72.20
2019-06-08T06:33:37.702Z,72.20
2019-06-08T06:36:06.952Z,72.50
2019-06-08T06:38:36.046Z,72.30
2019-06-08T06:41:05.150Z,72.00
2019-06-08T06:43:34.261Z,72.00
2019-06-08T06:46:03.333Z,72.00
2019-06-08T06:48:32.539Z,72.30
2019-06-08T06:51:01.653Z,72.50
2019-06-08T06:53:30.835Z,72.30
2019-06-08T06:55:59.987Z,72.30
2019-06-08T06:58:29.036Z,71.50
2019-06-08T07:00:58.122Z,71.80
2019-06-08T07:03:27.280Z,71.40
2019-06-08T07:05:56.381Z,71.70
2019-06-08T07:08:25.477Z,71.40
2019-06-08T07:10:55.193Z,71.40
2019-06-08T07:13:24.724Z,71.60
2019-06-08T07:15:56.388Z,70.90
2019-06-08T07:18:24.627Z,71.40
2019-06-08T07:20:54.361Z,73.00
2019-06-08T07:23:23.527Z,73.70
2019-06-08T07:25:52.942Z,72.90
2019-06-08T07:28:22.158Z,73.10
2019-06-08T07:30:51.321Z,73.90
2019-06-08T07:33:20.405Z,73.40
2019-06-08T07:35:49.975Z,73.60
2019-06-08T07:38:20.354Z,73.30
2019-06-08T07:40:49.946Z,72.90
2019-06-08T07:43:19.183Z,72.20
2019-06-08T07:45:48.250Z,72.10
2019-06-08T07:48:17.316Z,71.90
2019-06-08T07:50:46.411Z,71.40
2019-06-08T07:53:15.523Z,71.60
2019-06-08T07:55:45.503Z,70.30
2019-06-08T07:58:14.772Z,71.40
2019-06-08T08:00:43.838Z,71.60
2019-06-08T08:03:12.905Z,71.10
2019-06-08T08:05:41.994Z,71.10
2019-06-08T08:08:11.228Z,70.80
2019-06-08T08:10:40.313Z,70.30
2019-06-08T08:13:09.406Z,70.10
2019-06-08T08:15:38.489Z,69.60
2019-06-08T08:18:07.612Z,70.20
2019-06-08T08:20:36.711Z,70.00
2019-06-08T08:23:08.925Z,69.80
2019-06-08T08:25:37.888Z,70.20
2019-06-08T08:28:08.217Z,71.50
2019-06-08T08:30:37.792Z,71.40
2019-06-08T08:33:07.841Z,71.60
2019-06-08T08:35:38.078Z,72.20
2019-06-08T08:38:07.692Z,72.40
2019-06-08T08:40:38.830Z,73.60
2019-06-08T08:43:09.372Z,73.90
2019-06-08T08:45:40.354Z,73.90
2019-06-08T08:48:21.484Z,74.40
2019-06-08T08:50:40.281Z,75.60
2019-06-08T08:53:09.355Z,75.80
2019-06-08T08:55:38.415Z,74.90
2019-06-08T08:58:08.386Z,74.80
2019-06-08T09:00:40.841Z,75.20
2019-06-08T09:03:25.986Z,74.90
2019-06-08T09:05:39.272Z,74.50
2019-06-08T09:08:08.764Z,75.30
2019-06-08T09:10:38.318Z,75.60
2019-06-08T09:13:09.262Z,75.70
2019-06-08T09:15:38.360Z,75.70
2019-06-08T09:18:08.149Z,75.10
2019-06-08T09:20:38.020Z,76.30
2019-06-08T09:23:15.005Z,75.50
2019-06-08T09:25:40.678Z,75.30
2019-06-08T09:28:09.048Z,75.40
2019-06-08T09:30:38.597Z,76.50
2019-06-08T09:33:08.088Z,75.60
2019-06-08T09:35:37.888Z,75.30
2019-06-08T09:38:08.547Z,75.50
2019-06-08T09:40:38.570Z,74.70
2019-06-08T09:43:12.783Z,75.50
2019-06-08T09:45:38.829Z,76.00
2019-06-08T09:48:09.252Z,76.60
2019-06-08T09:50:39.265Z,76.60
2019-06-08T09:53:23.261Z,77.80
2019-06-08T09:55:41.357Z,78.20
2019-06-08T09:58:11.853Z,80.60
2019-06-08T10:00:40.992Z,80.80
2019-06-08T10:03:10.112Z,83.00
2019-06-08T10:05:39.370Z,84.40
2019-06-08T10:08:09.443Z,83.00
2019-06-08T10:10:39.018Z,83.20
2019-06-08T10:13:09.724Z,83.30
2019-06-08T10:15:39.475Z,82.90
2019-06-08T10:18:08.667Z,81.30
2019-06-08T10:20:38.417Z,81.20
2019-06-08T10:23:26.825Z,80.00
2019-06-08T10:25:38.859Z,80.60
2019-06-08T10:28:14.017Z,81.10
2019-06-08T10:30:39.435Z,80.40
2019-06-08T10:33:10.069Z,78.80
2019-06-08T10:35:39.555Z,78.50
2019-06-08T10:38:11.876Z,77.60
2019-06-08T10:41:00.318Z,75.50
2019-06-08T10:43:30.013Z,74.90
2019-06-08T10:46:03.061Z,73.70
2019-06-08T10:48:30.736Z,74.20
2019-06-08T10:51:02.308Z,73.40
2019-06-08T10:53:45.202Z,73.40
2019-06-08T10:56:03.124Z,72.80
2019-06-08T10:58:32.640Z,72.60
2019-06-08T11:01:04.182Z,71.30
2019-06-08T11:03:32.592Z,70.90
2019-06-08T11:06:03.274Z,71.30
2019-06-08T11:08:32.740Z,71.00
2019-06-08T11:11:02.849Z,71.70
2019-06-08T11:13:32.737Z,71.10
2019-06-08T11:16:02.837Z,67.60
2019-06-08T11:18:32.805Z,69.50
2019-06-08T11:21:02.383Z,70.20
2019-06-08T11:23:34.456Z,70.40
2019-06-08T11:26:12.808Z,70.00
2019-06-08T11:28:38.411Z,70.50
2019-06-08T11:31:13.130Z,71.80
2019-06-08T11:33:39.103Z,71.80
2019-06-08T11:36:13.783Z,72.70
2019-06-08T11:38:41.342Z,72.40
2019-06-08T11:41:13.550Z,71.10
2019-06-08T11:43:42.414Z,70.30
2019-06-08T11:46:11.619Z,69.50
2019-06-08T11:48:41.975Z,69.20
2019-06-08T11:51:13.539Z,70.10
2019-06-08T11:53:42.876Z,69.20
2019-06-08T11:56:13.628Z,68.90
2019-06-08T11:58:48.448Z,69.60
2019-06-08T12:01:18.562Z,69.50
2019-06-08T12:03:48.438Z,69.80
2019-06-08T12:06:19.314Z,70.00
2019-06-08T12:08:48.475Z,69.60
2019-06-08T12:11:19.700Z,73.70
2019-06-08T12:13:48.619Z,75.20
2019-06-08T12:16:22.082Z,77.50
2019-06-08T12:18:49.413Z,77.20
2019-06-08T12:21:19.150Z,78.40
2019-06-08T12:23:48.747Z,79.00
2019-06-08T12:26:17.930Z,78.40
2019-06-08T12:28:48.693Z,75.00
2019-06-08T12:31:22.258Z,73.10
2019-06-08T12:33:50.770Z,74.40
2019-06-08T12:36:20.950Z,72.40
2019-06-08T12:38:50.734Z,73.10
2019-06-08T12:41:19.935Z,70.50
2019-06-08T12:43:50.878Z,68.40
2019-06-08T12:46:21.555Z,66.80
2019-06-08T12:48:51.055Z,62.90
2019-06-08T12:51:21.476Z,65.20
2019-06-08T12:53:52.559Z,62.60
2019-06-08T12:56:26.083Z,61.70
2019-06-08T12:58:57.965Z,63.00
2019-06-08T13:01:28.543Z,62.60
2019-06-08T13:03:58.833Z,62.60
2019-06-08T13:06:28.489Z,62.40
2019-06-08T13:08:57.915Z,64.10
2019-06-08T13:11:28.426Z,59.90
2019-06-08T13:13:57.624Z,61.60
2019-06-08T13:16:28.419Z,60.20
2019-06-08T13:18:58.696Z,59.50
2019-06-08T13:21:34.525Z,59.30
2019-06-08T13:23:59.137Z,58.40
2019-06-08T13:26:31.087Z,57.90
2019-06-08T13:29:00.725Z,58.10
2019-06-08T13:31:32.388Z,57.60
2019-06-08T13:34:01.979Z,56.20
2019-06-08T13:36:31.235Z,56.60
2019-06-08T13:39:00.404Z,58.50
2019-06-08T13:41:30.174Z,56.30
2019-06-08T13:43:59.357Z,57.30
2019-06-08T13:46:28.469Z,58.60
2019-06-08T13:48:58.545Z,56.10
2019-06-08T13:51:28.264Z,57.20
2019-06-08T13:53:58.173Z,54.60
2019-06-08T13:56:28.416Z,53.40
2019-06-08T13:58:57.803Z,53.10
2019-06-08T14:01:27.935Z,51.90
2019-06-08T14:03:58.297Z,54.60
2019-06-08T14:06:28.421Z,53.90
2019-06-08T14:08:58.105Z,54.90
2019-06-08T14:11:28.134Z,51.70
2019-06-08T14:14:00.784Z,53.70
2019-06-08T14:16:29.730Z,51.40
2019-06-08T14:18:58.968Z,51.90
2019-06-08T14:21:37.465Z,53.70
2019-06-08T14:23:59.033Z,51.50
2019-06-08T14:26:28.144Z,53.50
2019-06-08T14:29:00.835Z,52.00
2019-06-08T14:31:31.620Z,52.80
2019-06-08T14:33:59.004Z,51.70
2019-06-08T14:36:29.095Z,52.20
2019-06-08T14:39:02.434Z,50.60
2019-06-08T14:41:31.633Z,51.60
2019-06-08T14:44:00.783Z,53.50
2019-06-08T14:46:30.413Z,52.30
2019-06-08T14:48:59.784Z,51.70
2019-06-08T14:51:48.497Z,51.60
2019-06-08T14:54:22.708Z,49.20
2019-06-08T14:56:49.453Z,51.40
2019-06-08T14:59:20.157Z,48.20
2019-06-08T15:01:49.301Z,51.00
2019-06-08T15:04:22.875Z,48.30
2019-06-08T15:06:49.284Z,47.90
2019-06-08T15:09:19.433Z,46.00
2019-06-08T15:11:48.816Z,49.50
2019-06-08T15:14:19.342Z,48.80
2019-06-08T15:16:49.349Z,47.10
2019-06-08T15:19:20.113Z,51.10
2019-06-08T15:21:49.426Z,49.00
2019-06-08T15:24:18.698Z,47.50
2019-06-08T15:26:48.669Z,47.70
2019-06-08T15:29:18.374Z,48.30
2019-06-08T15:31:48.206Z,49.00
2019-06-08T15:34:18.016Z,50.90
2019-06-08T15:36:47.645Z,49.40
2019-06-08T15:39:38.644Z,46.30
2019-06-08T15:42:08.278Z,46.40
2019-06-08T15:44:38.278Z,45.00
2019-06-08T15:47:08.187Z,45.00
2019-06-08T15:49:39.132Z,46.10
2019-06-08T15:52:08.365Z,48.50
2019-06-08T15:54:40.553Z,46.50
2019-06-08T15:57:08.415Z,48.40
2019-06-08T15:59:41.605Z,48.30
2019-06-08T16:02:08.335Z,48.10
2019-06-08T16:04:37.453Z,48.70
2019-06-08T16:07:06.726Z,46.80
2019-06-08T16:09:35.879Z,48.30
2019-06-08T16:12:04.972Z,46.30
2019-06-08T16:14:34.984Z,46.80
2019-06-08T16:17:04.292Z,49.80
2019-06-08T16:19:33.716Z,48.00
2019-06-08T16:22:03.176Z,48.80
2019-06-08T16:24:32.286Z,48.20
2019-06-08T16:27:02.298Z,48.50
2019-06-08T16:29:31.390Z,50.50
2019-06-08T16:32:00.435Z,48.10
2019-06-08T16:34:29.565Z,50.80
2019-06-08T16:36:58.829Z,48.20
2019-06-08T16:39:28.632Z,48.50
2019-06-08T16:41:57.759Z,48.50
2019-06-08T16:44:28.083Z,48.20
2019-06-08T16:46:57.321Z,48.20
2019-06-08T16:49:27.109Z,46.40
2019-06-08T16:51:56.323Z,48.20
2019-06-08T16:54:25.440Z,48.00
2019-06-08T16:57:08.856Z,49.70
2019-06-08T16:59:25.383Z,50.40
2019-06-08T17:01:54.478Z,51.90
2019-06-08T17:04:23.734Z,50.40
2019-06-08T17:06:52.860Z,51.90
2019-06-08T17:09:22.095Z,50.00
2019-06-08T17:11:52.493Z,49.60
2019-06-08T17:14:24.825Z,47.90
2019-06-08T17:16:52.579Z,50.90
2019-06-08T17:19:21.692Z,52.20
2019-06-08T17:21:50.814Z,50.80
2019-06-08T17:24:19.911Z,50.10
2019-06-08T17:26:49.059Z,49.40
2019-06-08T17:29:19.921Z,50.50
2019-06-08T17:31:49.875Z,46.70
2019-06-08T17:34:20.683Z,49.20
2019-06-08T17:36:50.277Z,50.00
2019-06-08T17:39:19.608Z,49.20
2019-06-08T17:41:48.896Z,48.80
2019-06-08T17:44:18.463Z,50.00
2019-06-08T17:46:48.149Z,48.30
2019-06-08T17:49:17.461Z,49.30
2019-06-08T17:51:47.027Z,46.60
2019-06-08T17:54:16.601Z,48.30
2019-06-08T17:56:45.820Z,45.50
2019-06-08T17:59:15.083Z,46.70
2019-06-08T18:01:44.247Z,46.50
2019-06-08T18:04:13.468Z,49.00
2019-06-08T18:06:44.524Z,48.00
2019-06-08T18:09:17.891Z,47.40
2019-06-08T18:11:48.346Z,47.70
2019-06-08T18:14:18.535Z,50.00
2019-06-08T18:16:48.367Z,49.80
2019-06-08T18:19:25.189Z,49.10
2019-06-08T18:21:54.519Z,49.10
2019-06-08T18:24:23.718Z,50.30
2019-06-08T18:27:04.165Z,49.40
2019-06-08T18:29:34.668Z,49.40
2019-06-08T18:32:07.224Z,49.70
2019-06-08T18:34:37.658Z,47.10
2019-06-08T18:37:10.820Z,48.50
2019-06-08T18:39:44.115Z,48.60
2019-06-08T18:42:13.618Z,48.60
2019-06-08T18:44:43.992Z,49.60
2019-06-08T18:47:13.523Z,48.90
2019-06-08T18:49:44.122Z,48.50
2019-06-08T18:52:13.346Z,50.00
2019-06-08T18:54:43.161Z,51.80
2019-06-08T18:57:13.515Z,51.40
2019-06-08T19:00:08.465Z,52.30
2019-06-08T19:02:32.800Z,52.20
2019-06-08T19:05:01.962Z,54.00
2019-06-08T19:07:32.242Z,54.00
2019-06-08T19:10:03.763Z,54.30
2019-06-08T19:12:32.894Z,56.00
2019-06-08T19:15:02.279Z,56.50
2019-06-08T19:17:31.374Z,55.80
2019-06-08T19:20:00.520Z,56.70
2019-06-08T19:22:30.309Z,55.90
2019-06-08T19:24:59.630Z,56.20
2019-06-08T19:27:29.112Z,57.10
2019-06-08T19:29:58.293Z,57.90
2019-06-08T19:32:28.077Z,57.20
2019-06-08T19:34:58.167Z,57.80
2019-06-08T19:37:28.756Z,58.20
2019-06-08T19:39:58.362Z,58.70
2019-06-08T19:42:36.690Z,58.00
2019-06-08T19:45:05.047Z,58.20
2019-06-08T19:47:29.308Z,58.20
2019-06-08T19:49:58.495Z,58.10
2019-06-08T19:52:27.647Z,58.40
2019-06-08T19:54:58.109Z,58.30
2019-06-08T19:57:28.243Z,58.90
2019-06-08T20:00:00.066Z,59.10
2019-06-08T20:02:28.685Z,59.20
2019-06-08T20:04:57.964Z,59.20
2019-06-08T20:07:27.983Z,59.20
2019-06-08T20:09:57.385Z,59.50
2019-06-08T20:12:28.106Z,59.50
2019-06-08T20:14:57.712Z,59.80
2019-06-08T20:17:28.423Z,60.50
2019-06-08T20:19:58.395Z,60.40
2019-06-08T20:22:27.834Z,59.70
2019-06-08T20:24:57.001Z,60.00
2019-06-08T20:27:27.936Z,60.30
2019-06-08T20:29:58.226Z,60.10
2019-06-08T20:32:28.187Z,60.40
2019-06-08T20:35:00.221Z,60.10
2019-06-08T20:37:32.508Z,60.70
2019-06-08T20:40:10.101Z,61.20
2019-06-08T20:42:34.203Z,60.90
2019-06-08T20:45:03.703Z,60.90
2019-06-08T20:47:35.971Z,61.20
2019-06-08T20:50:07.502Z,61.10
2019-06-08T20:52:37.953Z,61.20
2019-06-08T20:55:08.058Z,60.90
2019-06-08T20:57:38.359Z,61.40
2019-06-08T21:00:11.650Z,61.80
2019-06-08T21:02:39.548Z,61.20
2019-06-08T21:05:08.724Z,60.70
2019-06-08T21:07:39.386Z,61.40
2019-06-08T21:10:08.933Z,61.40
2019-06-08T21:12:41.973Z,61.60
2019-06-08T21:15:11.214Z,61.10
2019-06-08T21:17:44.704Z,61.60
2019-06-08T21:20:17.739Z,61.60
2019-06-08T21:22:53.882Z,62.70
2019-06-08T21:25:24.640Z,61.80
2019-06-08T21:27:57.176Z,61.90
2019-06-08T21:30:28.296Z,62.20
2019-06-08T21:33:00.619Z,61.90
2019-06-08T21:35:29.885Z,63.60
2019-06-08T21:38:01.283Z,62.70
2019-06-08T21:40:32.129Z,63.20
2019-06-08T21:43:01.718Z,63.40
2019-06-08T21:45:31.147Z,63.30
2019-06-08T21:48:02.820Z,63.30
2019-06-08T21:50:32.020Z,63.00
2019-06-08T21:53:02.111Z,62.90
2019-06-08T21:55:31.251Z,63.60
2019-06-08T21:58:02.059Z,63.60
2019-06-08T22:00:43.001Z,64.10
2019-06-08T22:03:08.062Z,64.20
2019-06-08T22:05:37.824Z,64.00
2019-06-08T22:08:08.013Z,64.10
2019-06-08T22:10:38.102Z,63.80
2019-06-08T22:13:08.607Z,64.20
2019-06-08T22:15:39.273Z,64.00
2019-06-08T22:18:10.827Z,63.60
2019-06-08T22:20:42.751Z,64.20
2019-06-08T22:23:11.968Z,64.00
2019-06-08T22:25:41.270Z,63.80
2019-06-08T22:28:13.051Z,64.00
2019-06-08T22:30:45.093Z,63.80
2019-06-08T22:33:14.583Z,64.70
2019-06-08T22:35:43.788Z,64.90
2019-06-08T22:38:13.132Z,64.70
2019-06-08T22:40:42.453Z,64.70
2019-06-08T22:43:12.007Z,65.10
2019-06-08T22:45:41.424Z,65.60
2019-06-08T22:48:10.514Z,64.50
2019-06-08T22:50:39.669Z,64.70
2019-06-08T22:53:10.438Z,64.60
2019-06-08T22:55:40.098Z,64.80
2019-06-08T22:58:09.276Z,64.50
2019-06-08T23:00:51.695Z,64.90
2019-06-08T23:03:09.754Z,64.80
2019-06-08T23:05:39.414Z,64.80
2019-06-08T23:08:09.403Z,64.70
2019-06-08T23:10:41.361Z,65.10
2019-06-08T23:13:10.544Z,64.60
2019-06-08T23:15:39.960Z,64.80
2019-06-08T23:18:09.461Z,64.90
2019-06-08T23:20:41.613Z,64.90
2019-06-08T23:23:10.761Z,65.10
2019-06-08T23:25:40.012Z,64.80
2019-06-08T23:28:09.994Z,65.20
2019-06-08T23:30:39.247Z,65.70
2019-06-08T23:33:11.500Z,65.70
2019-06-08T23:36:07.739Z,65.70
2019-06-08T23:38:10.209Z,65.70
2019-06-08T23:40:39.398Z,65.70
2019-06-08T23:43:08.558Z,66.10
2019-06-08T23:45:38.155Z,66.60
2019-06-08T23:48:08.636Z,66.70
2019-06-08T23:50:38.075Z,67.10
2019-06-08T23:53:10.769Z,67.00
2019-06-08T23:55:38.915Z,67.40
2019-06-08T23:58:11.089Z,67.90
